sensor_id;sensor_type;location;lat;lon;timestamp;P1;durP1;ratioP1;P2;durP2;ratioP2
1957;SDS011;979;51.076;13.748;2023-08-12T00:02:18;22.23;;;21.03;;
1957;SDS011;979;51.076;13.748;2023-08-12T00:04:46;20.47;;;19.47;;
1957;SDS011;979;51.076;13.748;2023-08-12T00:07:14;20.40;;;19.33;;
1957;SDS011;979;51.076;13.748;2023-08-12T00:09:42;20.60;;;19.70;;
1957;SDS011;979;51.076;13.748;2023-08-12T00:12:11;21.20;;;20.20;;
1957;SDS011;979;51.076;13.748;2023-08-12T00:14:39;22.57;;;21.10;;
1957;SDS011;979;51.076;13.748;2023-08-12T00:17:08;21.70;;;20.50;;
1957;SDS011;979;51.076;13.748;2023-08-12T00:19:38;21.10;;;20.00;;
1957;SDS011;979;51.076;13.748;2023-08-12T00:22:06;21.90;;;20.33;;
1957;SDS011;979;51.076;13.748;2023-08-12T00:24:34;20.20;;;19.20;;
1957;SDS011;979;51.076;13.748;2023-08-12T00:27:02;20.43;;;19.43;;
1957;SDS011;979;51.076;13.748;2023-08-12T00:29:31;20.80;;;19.80;;
1957;SDS011;979;51.076;13.748;2023-08-12T00:31:59;20.17;;;19.27;;
1957;SDS011;979;51.076;13.748;2023-08-12T00:34:29;19.80;;;18.80;;
1957;SDS011;979;51.076;13.748;2023-08-12T00:36:57;20.20;;;19.20;;
1957;SDS011;979;51.076;13.748;2023-08-12T00:39:25;20.50;;;19.30;;
1957;SDS011;979;51.076;13.748;2023-08-12T00:41:54;21.07;;;19.83;;
1957;SDS011;979;51.076;13.748;2023-08-12T00:44:22;20.17;;;19.03;;
1957;SDS011;979;51.076;13.748;2023-08-12T00:46:52;20.90;;;19.90;;
1957;SDS011;979;51.076;13.748;2023-08-12T00:49:23;20.97;;;19.80;;
1957;SDS011;979;51.076;13.748;2023-08-12T00:51:53;20.30;;;19.20;;
1957;SDS011;979;51.076;13.748;2023-08-12T00:54:25;20.43;;;19.40;;
1957;SDS011;979;51.076;13.748;2023-08-12T00:56:57;20.57;;;19.63;;
1957;SDS011;979;51.076;13.748;2023-08-12T00:59:28;21.70;;;20.30;;
1957;SDS011;979;51.076;13.748;2023-08-12T01:01:56;20.53;;;19.43;;
1957;SDS011;979;51.076;13.748;2023-08-12T01:04:24;20.90;;;19.90;;
1957;SDS011;979;51.076;13.748;2023-08-12T01:06:54;20.70;;;19.60;;
1957;SDS011;979;51.076;13.748;2023-08-12T01:09:23;20.20;;;19.20;;
1957;SDS011;979;51.076;13.748;2023-08-12T01:11:54;21.27;;;20.07;;
1957;SDS011;979;51.076;13.748;2023-08-12T01:14:33;21.47;;;20.37;;
1957;SDS011;979;51.076;13.748;2023-08-12T01:17:05;21.13;;;20.00;;
1957;SDS011;979;51.076;13.748;2023-08-12T01:19:37;20.67;;;19.60;;
1957;SDS011;979;51.076;13.748;2023-08-12T01:22:08;20.23;;;19.13;;
1957;SDS011;979;51.076;13.748;2023-08-12T01:24:41;20.90;;;19.70;;
1957;SDS011;979;51.076;13.748;2023-08-12T01:27:11;22.27;;;21.00;;
1957;SDS011;979;51.076;13.748;2023-08-12T01:29:41;21.13;;;20.00;;
1957;SDS011;979;51.076;13.748;2023-08-12T01:32:12;20.20;;;19.20;;
1957;SDS011;979;51.076;13.748;2023-08-12T01:34:47;21.10;;;20.10;;
1957;SDS011;979;51.076;13.748;2023-08-12T01:37:21;20.87;;;19.77;;
1957;SDS011;979;51.076;13.748;2023-08-12T01:39:53;20.40;;;19.40;;
1957;SDS011;979;51.076;13.748;2023-08-12T01:42:27;21.40;;;20.40;;
1957;SDS011;979;51.076;13.748;2023-08-12T01:44:56;21.87;;;20.67;;
1957;SDS011;979;51.076;13.748;2023-08-12T01:47:26;21.20;;;20.00;;
1957;SDS011;979;51.076;13.748;2023-08-12T01:49:54;21.40;;;20.27;;
1957;SDS011;979;51.076;13.748;2023-08-12T01:52:23;22.13;;;20.60;;
1957;SDS011;979;51.076;13.748;2023-08-12T01:54:55;21.63;;;20.53;;
1957;SDS011;979;51.076;13.748;2023-08-12T01:57:25;20.57;;;19.57;;
1957;SDS011;979;51.076;13.748;2023-08-12T01:59:53;21.30;;;20.20;;
1957;SDS011;979;51.076;13.748;2023-08-12T02:02:21;22.07;;;20.97;;
1957;SDS011;979;51.076;13.748;2023-08-12T02:04:50;22.90;;;21.10;;
1957;SDS011;979;51.076;13.748;2023-08-12T02:07:18;21.93;;;20.70;;
1957;SDS011;979;51.076;13.748;2023-08-12T02:09:47;22.47;;;21.13;;
1957;SDS011;979;51.076;13.748;2023-08-12T02:12:16;21.40;;;20.40;;
1957;SDS011;979;51.076;13.748;2023-08-12T02:14:45;21.20;;;20.20;;
1957;SDS011;979;51.076;13.748;2023-08-12T02:17:13;21.70;;;20.53;;
1957;SDS011;979;51.076;13.748;2023-08-12T02:19:41;22.60;;;21.17;;
1957;SDS011;979;51.076;13.748;2023-08-12T02:22:10;21.03;;;20.03;;
1957;SDS011;979;51.076;13.748;2023-08-12T02:24:40;21.17;;;20.10;;
1957;SDS011;979;51.076;13.748;2023-08-12T02:27:08;21.10;;;20.00;;
1957;SDS011;979;51.076;13.748;2023-08-12T02:29:40;22.53;;;20.93;;
1957;SDS011;979;51.076;13.748;2023-08-12T02:32:11;20.30;;;19.20;;
1957;SDS011;979;51.076;13.748;2023-08-12T02:34:41;22.33;;;21.17;;
1957;SDS011;979;51.076;13.748;2023-08-12T02:37:09;20.60;;;19.60;;
1957;SDS011;979;51.076;13.748;2023-08-12T02:39:39;21.07;;;20.07;;
1957;SDS011;979;51.076;13.748;2023-08-12T02:42:07;21.33;;;20.30;;
1957;SDS011;979;51.076;13.748;2023-08-12T02:44:36;20.47;;;19.47;;
1957;SDS011;979;51.076;13.748;2023-08-12T02:47:05;21.10;;;20.00;;
1957;SDS011;979;51.076;13.748;2023-08-12T02:49:34;21.27;;;20.17;;
1957;SDS011;979;51.076;13.748;2023-08-12T02:52:04;22.13;;;21.03;;
1957;SDS011;979;51.076;13.748;2023-08-12T02:54:33;21.27;;;20.07;;
1957;SDS011;979;51.076;13.748;2023-08-12T02:57:01;21.67;;;20.40;;
1957;SDS011;979;51.076;13.748;2023-08-12T02:59:30;20.83;;;19.87;;
1957;SDS011;979;51.076;13.748;2023-08-12T03:01:58;21.57;;;20.57;;
1957;SDS011;979;51.076;13.748;2023-08-12T03:04:28;25.10;;;22.33;;
1957;SDS011;979;51.076;13.748;2023-08-12T03:06:56;21.77;;;20.73;;
1957;SDS011;979;51.076;13.748;2023-08-12T03:09:25;21.30;;;20.13;;
1957;SDS011;979;51.076;13.748;2023-08-12T03:11:53;21.33;;;20.20;;
1957;SDS011;979;51.076;13.748;2023-08-12T03:14:22;21.47;;;20.37;;
1957;SDS011;979;51.076;13.748;2023-08-12T03:16:50;20.73;;;19.63;;
1957;SDS011;979;51.076;13.748;2023-08-12T03:19:20;21.50;;;20.40;;
1957;SDS011;979;51.076;13.748;2023-08-12T03:21:52;22.77;;;21.10;;
1957;SDS011;979;51.076;13.748;2023-08-12T03:24:23;21.17;;;20.00;;
1957;SDS011;979;51.076;13.748;2023-08-12T03:26:52;20.80;;;19.80;;
1957;SDS011;979;51.076;13.748;2023-08-12T03:29:20;21.27;;;20.13;;
1957;SDS011;979;51.076;13.748;2023-08-12T03:31:48;20.50;;;19.40;;
1957;SDS011;979;51.076;13.748;2023-08-12T03:34:17;20.10;;;19.10;;
1957;SDS011;979;51.076;13.748;2023-08-12T03:36:45;20.63;;;19.73;;
1957;SDS011;979;51.076;13.748;2023-08-12T03:39:18;20.83;;;19.83;;
1957;SDS011;979;51.076;13.748;2023-08-12T03:41:48;19.83;;;18.83;;
1957;SDS011;979;51.076;13.748;2023-08-12T03:44:17;20.90;;;19.70;;
1957;SDS011;979;51.076;13.748;2023-08-12T03:46:46;21.83;;;20.73;;
1957;SDS011;979;51.076;13.748;2023-08-12T03:49:15;21.67;;;20.50;;
1957;SDS011;979;51.076;13.748;2023-08-12T03:51:47;20.27;;;19.27;;
1957;SDS011;979;51.076;13.748;2023-08-12T03:54:19;20.27;;;19.30;;
1957;SDS011;979;51.076;13.748;2023-08-12T03:56:48;21.40;;;20.27;;
1957;SDS011;979;51.076;13.748;2023-08-12T03:59:17;21.87;;;20.67;;
1957;SDS011;979;51.076;13.748;2023-08-12T04:01:47;20.40;;;19.50;;
1957;SDS011;979;51.076;13.748;2023-08-12T04:04:16;20.53;;;19.43;;
1957;SDS011;979;51.076;13.748;2023-08-12T04:06:44;20.97;;;19.87;;
1957;SDS011;979;51.076;13.748;2023-08-12T04:09:15;21.50;;;20.40;;
1957;SDS011;979;51.076;13.748;2023-08-12T04:11:44;22.20;;;20.90;;
1957;SDS011;979;51.076;13.748;2023-08-12T04:14:13;21.80;;;20.40;;
1957;SDS011;979;51.076;13.748;2023-08-12T04:16:42;22.70;;;21.20;;
1957;SDS011;979;51.076;13.748;2023-08-12T04:19:10;21.40;;;20.00;;
1957;SDS011;979;51.076;13.748;2023-08-12T04:21:39;20.90;;;19.90;;
1957;SDS011;979;51.076;13.748;2023-08-12T04:24:12;21.43;;;20.20;;
1957;SDS011;979;51.076;13.748;2023-08-12T04:26:40;22.00;;;20.70;;
1957;SDS011;979;51.076;13.748;2023-08-12T04:29:10;21.73;;;20.63;;
1957;SDS011;979;51.076;13.748;2023-08-12T04:31:41;21.43;;;20.33;;
1957;SDS011;979;51.076;13.748;2023-08-12T04:34:11;23.63;;;21.80;;
1957;SDS011;979;51.076;13.748;2023-08-12T04:36:39;21.57;;;20.40;;
1957;SDS011;979;51.076;13.748;2023-08-12T04:39:10;21.70;;;20.57;;
1957;SDS011;979;51.076;13.748;2023-08-12T04:41:39;21.40;;;20.30;;
1957;SDS011;979;51.076;13.748;2023-08-12T04:44:08;22.10;;;20.83;;
1957;SDS011;979;51.076;13.748;2023-08-12T04:46:37;20.50;;;19.40;;
1957;SDS011;979;51.076;13.748;2023-08-12T04:49:08;21.60;;;20.50;;
1957;SDS011;979;51.076;13.748;2023-08-12T04:51:36;20.70;;;19.70;;
1957;SDS011;979;51.076;13.748;2023-08-12T04:54:04;21.03;;;19.83;;
1957;SDS011;979;51.076;13.748;2023-08-12T04:56:35;21.00;;;19.40;;
1957;SDS011;979;51.076;13.748;2023-08-12T04:59:04;20.90;;;19.90;;
1957;SDS011;979;51.076;13.748;2023-08-12T05:01:35;20.87;;;19.77;;
1957;SDS011;979;51.076;13.748;2023-08-12T05:04:24;20.60;;;19.50;;
1957;SDS011;979;51.076;13.748;2023-08-12T05:06:55;21.73;;;20.43;;
1957;SDS011;979;51.076;13.748;2023-08-12T05:09:24;22.03;;;20.93;;
1957;SDS011;979;51.076;13.748;2023-08-12T05:11:52;20.87;;;19.77;;
1957;SDS011;979;51.076;13.748;2023-08-12T05:14:21;20.07;;;19.07;;
1957;SDS011;979;51.076;13.748;2023-08-12T05:16:51;20.67;;;19.77;;
1957;SDS011;979;51.076;13.748;2023-08-12T05:19:19;20.10;;;19.20;;
1957;SDS011;979;51.076;13.748;2023-08-12T05:21:48;22.37;;;21.17;;
1957;SDS011;979;51.076;13.748;2023-08-12T05:24:16;19.70;;;18.87;;
1957;SDS011;979;51.076;13.748;2023-08-12T05:26:46;20.27;;;19.20;;
1957;SDS011;979;51.076;13.748;2023-08-12T05:29:15;20.27;;;19.37;;
1957;SDS011;979;51.076;13.748;2023-08-12T05:31:43;20.60;;;19.70;;
1957;SDS011;979;51.076;13.748;2023-08-12T05:34:13;21.17;;;20.07;;
1957;SDS011;979;51.076;13.748;2023-08-12T05:36:41;22.20;;;20.90;;
1957;SDS011;979;51.076;13.748;2023-08-12T05:39:09;20.83;;;19.83;;
1957;SDS011;979;51.076;13.748;2023-08-12T05:41:37;21.90;;;20.70;;
1957;SDS011;979;51.076;13.748;2023-08-12T05:44:06;20.00;;;19.00;;
1957;SDS011;979;51.076;13.748;2023-08-12T05:46:34;18.97;;;18.17;;
1957;SDS011;979;51.076;13.748;2023-08-12T05:49:02;21.23;;;19.93;;
1957;SDS011;979;51.076;13.748;2023-08-12T05:51:35;21.17;;;20.10;;
1957;SDS011;979;51.076;13.748;2023-08-12T05:54:04;21.10;;;20.00;;
1957;SDS011;979;51.076;13.748;2023-08-12T05:56:33;19.97;;;19.07;;
1957;SDS011;979;51.076;13.748;2023-08-12T05:59:01;19.70;;;18.80;;
1957;SDS011;979;51.076;13.748;2023-08-12T06:01:29;20.90;;;19.80;;
1957;SDS011;979;51.076;13.748;2023-08-12T06:03:57;20.03;;;19.10;;
1957;SDS011;979;51.076;13.748;2023-08-12T06:06:26;20.07;;;19.27;;
1957;SDS011;979;51.076;13.748;2023-08-12T06:08:55;20.83;;;19.93;;
1957;SDS011;979;51.076;13.748;2023-08-12T06:11:24;20.13;;;19.20;;
1957;SDS011;979;51.076;13.748;2023-08-12T06:13:52;19.30;;;18.50;;
1957;SDS011;979;51.076;13.748;2023-08-12T06:16:22;19.70;;;18.60;;
1957;SDS011;979;51.076;13.748;2023-08-12T06:18:50;19.73;;;18.83;;
1957;SDS011;979;51.076;13.748;2023-08-12T06:21:21;19.93;;;19.07;;
1957;SDS011;979;51.076;13.748;2023-08-12T06:23:49;20.10;;;19.30;;
1957;SDS011;979;51.076;13.748;2023-08-12T06:26:22;20.60;;;19.40;;
1957;SDS011;979;51.076;13.748;2023-08-12T06:28:50;19.20;;;18.40;;
1957;SDS011;979;51.076;13.748;2023-08-12T06:31:20;20.10;;;19.13;;
1957;SDS011;979;51.076;13.748;2023-08-12T06:33:48;20.27;;;18.93;;
1957;SDS011;979;51.076;13.748;2023-08-12T06:36:17;18.77;;;17.97;;
1957;SDS011;979;51.076;13.748;2023-08-12T06:38:48;19.23;;;18.43;;
1957;SDS011;979;51.076;13.748;2023-08-12T06:41:16;19.47;;;18.53;;
1957;SDS011;979;51.076;13.748;2023-08-12T06:43:46;19.20;;;18.30;;
1957;SDS011;979;51.076;13.748;2023-08-12T06:46:16;18.90;;;18.10;;
1957;SDS011;979;51.076;13.748;2023-08-12T06:48:44;19.03;;;18.13;;
1957;SDS011;979;51.076;13.748;2023-08-12T06:51:14;17.67;;;16.97;;
1957;SDS011;979;51.076;13.748;2023-08-12T06:53:43;18.70;;;17.63;;
1957;SDS011;979;51.076;13.748;2023-08-12T06:56:13;18.63;;;17.73;;
1957;SDS011;979;51.076;13.748;2023-08-12T06:58:41;18.60;;;17.80;;
1957;SDS011;979;51.076;13.748;2023-08-12T07:01:11;19.00;;;17.77;;
1957;SDS011;979;51.076;13.748;2023-08-12T07:03:41;17.53;;;16.70;;
1957;SDS011;979;51.076;13.748;2023-08-12T07:06:11;18.80;;;17.90;;
1957;SDS011;979;51.076;13.748;2023-08-12T07:08:41;18.73;;;17.67;;
1957;SDS011;979;51.076;13.748;2023-08-12T07:11:10;18.00;;;17.30;;
1957;SDS011;979;51.076;13.748;2023-08-12T07:13:38;18.50;;;17.80;;
1957;SDS011;979;51.076;13.748;2023-08-12T07:16:06;19.93;;;18.80;;
1957;SDS011;979;51.076;13.748;2023-08-12T07:18:36;19.07;;;18.30;;
1957;SDS011;979;51.076;13.748;2023-08-12T07:21:04;18.60;;;17.80;;
1957;SDS011;979;51.076;13.748;2023-08-12T07:23:32;19.50;;;18.60;;
1957;SDS011;979;51.076;13.748;2023-08-12T07:26:01;18.77;;;17.77;;
1957;SDS011;979;51.076;13.748;2023-08-12T07:28:29;18.10;;;17.37;;
1957;SDS011;979;51.076;13.748;2023-08-12T07:30:59;18.70;;;17.80;;
1957;SDS011;979;51.076;13.748;2023-08-12T07:33:28;18.43;;;17.63;;
1957;SDS011;979;51.076;13.748;2023-08-12T07:35:58;19.03;;;18.23;;
1957;SDS011;979;51.076;13.748;2023-08-12T07:38:27;18.90;;;18.10;;
1957;SDS011;979;51.076;13.748;2023-08-12T07:40:56;18.57;;;17.77;;
1957;SDS011;979;51.076;13.748;2023-08-12T07:43:26;18.97;;;18.17;;
1957;SDS011;979;51.076;13.748;2023-08-12T07:45:57;18.13;;;17.43;;
1957;SDS011;979;51.076;13.748;2023-08-12T07:48:35;18.77;;;18.07;;
1957;SDS011;979;51.076;13.748;2023-08-12T07:51:06;17.83;;;17.17;;
1957;SDS011;979;51.076;13.748;2023-08-12T07:53:34;18.97;;;18.03;;
1957;SDS011;979;51.076;13.748;2023-08-12T07:56:02;19.57;;;18.67;;
1957;SDS011;979;51.076;13.748;2023-08-12T07:58:33;19.37;;;18.50;;
1957;SDS011;979;51.076;13.748;2023-08-12T08:01:01;19.43;;;18.43;;
1957;SDS011;979;51.076;13.748;2023-08-12T08:03:31;19.60;;;18.80;;
1957;SDS011;979;51.076;13.748;2023-08-12T08:06:01;20.57;;;19.67;;
1957;SDS011;979;51.076;13.748;2023-08-12T08:08:33;19.87;;;18.97;;
1957;SDS011;979;51.076;13.748;2023-08-12T08:11:01;18.53;;;17.73;;
1957;SDS011;979;51.076;13.748;2023-08-12T08:13:32;18.63;;;17.80;;
1957;SDS011;979;51.076;13.748;2023-08-12T08:16:00;18.63;;;17.83;;
1957;SDS011;979;51.076;13.748;2023-08-12T08:18:29;18.90;;;18.10;;
1957;SDS011;979;51.076;13.748;2023-08-12T08:20:57;19.70;;;18.80;;
1957;SDS011;979;51.076;13.748;2023-08-12T08:23:34;19.53;;;18.50;;
1957;SDS011;979;51.076;13.748;2023-08-12T08:26:03;19.67;;;18.87;;
1957;SDS011;979;51.076;13.748;2023-08-12T08:28:33;19.37;;;18.67;;
1957;SDS011;979;51.076;13.748;2023-08-12T08:31:01;18.60;;;18.00;;
1957;SDS011;979;51.076;13.748;2023-08-12T08:33:30;20.43;;;19.53;;
1957;SDS011;979;51.076;13.748;2023-08-12T08:35:58;19.40;;;18.50;;
1957;SDS011;979;51.076;13.748;2023-08-12T08:38:27;19.93;;;19.13;;
1957;SDS011;979;51.076;13.748;2023-08-12T08:40:56;19.17;;;18.20;;
1957;SDS011;979;51.076;13.748;2023-08-12T08:43:26;19.10;;;18.30;;
1957;SDS011;979;51.076;13.748;2023-08-12T08:45:57;17.73;;;17.07;;
1957;SDS011;979;51.076;13.748;2023-08-12T08:48:27;19.50;;;18.60;;
1957;SDS011;979;51.076;13.748;2023-08-12T08:50:55;18.80;;;18.00;;
1957;SDS011;979;51.076;13.748;2023-08-12T08:53:24;18.87;;;18.10;;
1957;SDS011;979;51.076;13.748;2023-08-12T08:55:56;19.60;;;18.80;;
1957;SDS011;979;51.076;13.748;2023-08-12T08:58:27;19.60;;;18.80;;
1957;SDS011;979;51.076;13.748;2023-08-12T09:00:55;19.63;;;18.70;;
1957;SDS011;979;51.076;13.748;2023-08-12T09:03:24;19.37;;;18.43;;
1957;SDS011;979;51.076;13.748;2023-08-12T09:05:53;18.17;;;17.57;;
1957;SDS011;979;51.076;13.748;2023-08-12T09:08:23;19.23;;;18.53;;
1957;SDS011;979;51.076;13.748;2023-08-12T09:10:53;18.60;;;17.90;;
1957;SDS011;979;51.076;13.748;2023-08-12T09:13:24;18.80;;;18.10;;
1957;SDS011;979;51.076;13.748;2023-08-12T09:15:54;19.20;;;18.40;;
1957;SDS011;979;51.076;13.748;2023-08-12T09:18:23;18.40;;;17.70;;
1957;SDS011;979;51.076;13.748;2023-08-12T09:20:51;18.50;;;17.83;;
1957;SDS011;979;51.076;13.748;2023-08-12T09:23:20;18.30;;;17.50;;
1957;SDS011;979;51.076;13.748;2023-08-12T09:25:48;18.43;;;17.73;;
1957;SDS011;979;51.076;13.748;2023-08-12T09:28:18;18.50;;;17.70;;
1957;SDS011;979;51.076;13.748;2023-08-12T09:30:51;17.90;;;17.30;;
1957;SDS011;979;51.076;13.748;2023-08-12T09:33:23;19.00;;;18.23;;
1957;SDS011;979;51.076;13.748;2023-08-12T09:35:55;18.30;;;17.70;;
1957;SDS011;979;51.076;13.748;2023-08-12T09:38:24;17.07;;;16.47;;
1957;SDS011;979;51.076;13.748;2023-08-12T09:40:53;19.20;;;18.20;;
1957;SDS011;979;51.076;13.748;2023-08-12T09:43:24;18.13;;;17.33;;
1957;SDS011;979;51.076;13.748;2023-08-12T09:45:57;18.13;;;17.43;;
1957;SDS011;979;51.076;13.748;2023-08-12T09:48:26;17.27;;;16.67;;
1957;SDS011;979;51.076;13.748;2023-08-12T09:50:54;17.67;;;16.97;;
1957;SDS011;979;51.076;13.748;2023-08-12T09:53:24;18.10;;;17.30;;
1957;SDS011;979;51.076;13.748;2023-08-12T09:55:57;16.70;;;16.10;;
1957;SDS011;979;51.076;13.748;2023-08-12T09:58:35;16.40;;;15.90;;
1957;SDS011;979;51.076;13.748;2023-08-12T10:01:08;17.63;;;16.97;;
1957;SDS011;979;51.076;13.748;2023-08-12T10:03:42;17.03;;;16.43;;
1957;SDS011;979;51.076;13.748;2023-08-12T10:06:16;16.60;;;15.90;;
1957;SDS011;979;51.076;13.748;2023-08-12T10:08:45;16.90;;;16.17;;
1957;SDS011;979;51.076;13.748;2023-08-12T10:11:14;17.10;;;16.40;;
1957;SDS011;979;51.076;13.748;2023-08-12T10:13:45;16.40;;;15.80;;
1957;SDS011;979;51.076;13.748;2023-08-12T10:16:17;16.07;;;15.43;;
1957;SDS011;979;51.076;13.748;2023-08-12T10:18:48;17.20;;;16.60;;
1957;SDS011;979;51.076;13.748;2023-08-12T10:21:17;16.10;;;15.57;;
1957;SDS011;979;51.076;13.748;2023-08-12T10:23:46;15.50;;;15.10;;
1957;SDS011;979;51.076;13.748;2023-08-12T10:26:15;16.50;;;16.00;;
1957;SDS011;979;51.076;13.748;2023-08-12T10:28:47;15.57;;;15.03;;
1957;SDS011;979;51.076;13.748;2023-08-12T10:31:19;15.63;;;15.13;;
1957;SDS011;979;51.076;13.748;2023-08-12T10:33:48;16.40;;;15.90;;
1957;SDS011;979;51.076;13.748;2023-08-12T10:36:16;16.13;;;15.60;;
1957;SDS011;979;51.076;13.748;2023-08-12T10:38:45;16.13;;;15.63;;
1957;SDS011;979;51.076;13.748;2023-08-12T10:41:15;15.10;;;14.60;;
1957;SDS011;979;51.076;13.748;2023-08-12T10:43:54;16.73;;;16.23;;
1957;SDS011;979;51.076;13.748;2023-08-12T10:46:30;16.10;;;15.60;;
1957;SDS011;979;51.076;13.748;2023-08-12T10:49:02;16.77;;;16.00;;
1957;SDS011;979;51.076;13.748;2023-08-12T10:51:40;16.47;;;15.97;;
1957;SDS011;979;51.076;13.748;2023-08-12T10:54:21;16.80;;;16.30;;
1957;SDS011;979;51.076;13.748;2023-08-12T10:57:06;16.70;;;16.10;;
1957;SDS011;979;51.076;13.748;2023-08-12T10:59:48;16.40;;;15.90;;
1957;SDS011;979;51.076;13.748;2023-08-12T11:02:20;17.00;;;16.50;;
1957;SDS011;979;51.076;13.748;2023-08-12T11:04:50;16.60;;;16.10;;
1957;SDS011;979;51.076;13.748;2023-08-12T11:07:21;15.83;;;15.23;;
1957;SDS011;979;51.076;13.748;2023-08-12T11:09:58;16.43;;;15.93;;
1957;SDS011;979;51.076;13.748;2023-08-12T11:12:29;16.53;;;16.03;;
1957;SDS011;979;51.076;13.748;2023-08-12T11:14:58;16.60;;;16.00;;
1957;SDS011;979;51.076;13.748;2023-08-12T11:17:35;16.87;;;16.27;;
1957;SDS011;979;51.076;13.748;2023-08-12T11:20:05;18.30;;;17.60;;
1957;SDS011;979;51.076;13.748;2023-08-12T11:22:36;14.97;;;14.57;;
1957;SDS011;979;51.076;13.748;2023-08-12T11:25:09;16.47;;;15.87;;
1957;SDS011;979;51.076;13.748;2023-08-12T11:27:39;16.00;;;15.40;;
1957;SDS011;979;51.076;13.748;2023-08-12T11:30:10;16.03;;;15.53;;
1957;SDS011;979;51.076;13.748;2023-08-12T11:32:43;15.70;;;15.20;;
1957;SDS011;979;51.076;13.748;2023-08-12T11:35:15;15.70;;;15.20;;
1957;SDS011;979;51.076;13.748;2023-08-12T11:37:46;15.60;;;15.00;;
1957;SDS011;979;51.076;13.748;2023-08-12T11:40:19;16.77;;;15.87;;
1957;SDS011;979;51.076;13.748;2023-08-12T11:42:49;15.70;;;15.20;;
1957;SDS011;979;51.076;13.748;2023-08-12T11:45:19;15.63;;;15.00;;
1957;SDS011;979;51.076;13.748;2023-08-12T11:47:50;15.40;;;14.90;;
1957;SDS011;979;51.076;13.748;2023-08-12T11:50:22;15.73;;;15.23;;
1957;SDS011;979;51.076;13.748;2023-08-12T11:52:51;16.23;;;15.73;;
1957;SDS011;979;51.076;13.748;2023-08-12T11:55:20;16.20;;;15.60;;
1957;SDS011;979;51.076;13.748;2023-08-12T11:57:51;16.03;;;15.53;;
1957;SDS011;979;51.076;13.748;2023-08-12T12:00:19;15.77;;;15.27;;
1957;SDS011;979;51.076;13.748;2023-08-12T12:02:51;15.50;;;15.10;;
1957;SDS011;979;51.076;13.748;2023-08-12T12:05:21;16.13;;;15.63;;
1957;SDS011;979;51.076;13.748;2023-08-12T12:07:51;16.30;;;15.80;;
1957;SDS011;979;51.076;13.748;2023-08-12T12:10:25;16.87;;;16.27;;
1957;SDS011;979;51.076;13.748;2023-08-12T12:13:02;17.53;;;16.87;;
1957;SDS011;979;51.076;13.748;2023-08-12T12:15:31;16.60;;;16.10;;
1957;SDS011;979;51.076;13.748;2023-08-12T12:18:10;16.20;;;15.70;;
1957;SDS011;979;51.076;13.748;2023-08-12T12:20:42;17.13;;;16.63;;
1957;SDS011;979;51.076;13.748;2023-08-12T12:23:22;16.93;;;16.37;;
1957;SDS011;979;51.076;13.748;2023-08-12T12:25:56;18.10;;;17.47;;
1957;SDS011;979;51.076;13.748;2023-08-12T12:28:28;17.33;;;16.67;;
1957;SDS011;979;51.076;13.748;2023-08-12T12:30:56;18.50;;;17.57;;
1957;SDS011;979;51.076;13.748;2023-08-12T12:33:26;16.27;;;15.70;;
1957;SDS011;979;51.076;13.748;2023-08-12T12:35:56;16.47;;;15.87;;
1957;SDS011;979;51.076;13.748;2023-08-12T12:38:28;18.10;;;17.50;;
1957;SDS011;979;51.076;13.748;2023-08-12T12:40:56;16.43;;;15.63;;
1957;SDS011;979;51.076;13.748;2023-08-12T12:43:25;16.90;;;16.30;;
1957;SDS011;979;51.076;13.748;2023-08-12T12:45:53;16.70;;;16.10;;
1957;SDS011;979;51.076;13.748;2023-08-12T12:48:25;17.73;;;17.13;;
1957;SDS011;979;51.076;13.748;2023-08-12T12:50:56;16.87;;;16.23;;
1957;SDS011;979;51.076;13.748;2023-08-12T12:53:26;16.40;;;15.80;;
1957;SDS011;979;51.076;13.748;2023-08-12T12:55:57;17.70;;;17.00;;
1957;SDS011;979;51.076;13.748;2023-08-12T12:58:32;17.23;;;16.63;;
1957;SDS011;979;51.076;13.748;2023-08-12T13:01:04;17.40;;;16.70;;
1957;SDS011;979;51.076;13.748;2023-08-12T13:03:34;16.27;;;15.77;;
1957;SDS011;979;51.076;13.748;2023-08-12T13:06:04;17.00;;;16.10;;
1957;SDS011;979;51.076;13.748;2023-08-12T13:08:35;17.27;;;16.60;;
1957;SDS011;979;51.076;13.748;2023-08-12T13:11:04;17.30;;;16.70;;
1957;SDS011;979;51.076;13.748;2023-08-12T13:13:34;17.00;;;16.40;;
1957;SDS011;979;51.076;13.748;2023-08-12T13:16:02;16.23;;;15.73;;
1957;SDS011;979;51.076;13.748;2023-08-12T13:18:34;15.50;;;15.00;;
1957;SDS011;979;51.076;13.748;2023-08-12T13:21:03;17.03;;;16.20;;
1957;SDS011;979;51.076;13.748;2023-08-12T13:23:31;16.90;;;16.30;;
1957;SDS011;979;51.076;13.748;2023-08-12T13:25:59;16.43;;;15.83;;
1957;SDS011;979;51.076;13.748;2023-08-12T13:28:28;17.20;;;16.50;;
1957;SDS011;979;51.076;13.748;2023-08-12T13:30:56;16.07;;;15.47;;
1957;SDS011;979;51.076;13.748;2023-08-12T13:33:24;16.90;;;16.30;;
1957;SDS011;979;51.076;13.748;2023-08-12T13:35:54;18.07;;;17.10;;
1957;SDS011;979;51.076;13.748;2023-08-12T13:38:26;17.03;;;16.40;;
1957;SDS011;979;51.076;13.748;2023-08-12T13:40:54;16.97;;;16.27;;
1957;SDS011;979;51.076;13.748;2023-08-12T13:43:22;17.27;;;16.70;;
1957;SDS011;979;51.076;13.748;2023-08-12T13:45:53;16.83;;;16.33;;
1957;SDS011;979;51.076;13.748;2023-08-12T13:48:24;17.57;;;16.93;;
1957;SDS011;979;51.076;13.748;2023-08-12T13:50:56;17.80;;;16.77;;
1957;SDS011;979;51.076;13.748;2023-08-12T13:53:27;17.90;;;17.10;;
1957;SDS011;979;51.076;13.748;2023-08-12T13:55:55;16.70;;;16.00;;
1957;SDS011;979;51.076;13.748;2023-08-12T13:58:23;17.13;;;16.20;;
1957;SDS011;979;51.076;13.748;2023-08-12T14:00:52;17.90;;;17.20;;
1957;SDS011;979;51.076;13.748;2023-08-12T14:03:20;18.10;;;17.30;;
1957;SDS011;979;51.076;13.748;2023-08-12T14:05:48;17.90;;;17.13;;
1957;SDS011;979;51.076;13.748;2023-08-12T14:08:18;17.70;;;16.93;;
1957;SDS011;979;51.076;13.748;2023-08-12T14:10:48;17.20;;;16.60;;
1957;SDS011;979;51.076;13.748;2023-08-12T14:13:17;21.43;;;17.83;;
1957;SDS011;979;51.076;13.748;2023-08-12T14:15:46;19.50;;;18.60;;
1957;SDS011;979;51.076;13.748;2023-08-12T14:18:14;19.47;;;18.70;;
1957;SDS011;979;51.076;13.748;2023-08-12T14:20:42;18.57;;;17.50;;
1957;SDS011;979;51.076;13.748;2023-08-12T14:23:10;17.67;;;16.53;;
1957;SDS011;979;51.076;13.748;2023-08-12T14:25:43;18.13;;;17.43;;
1957;SDS011;979;51.076;13.748;2023-08-12T14:28:11;17.37;;;16.63;;
1957;SDS011;979;51.076;13.748;2023-08-12T14:30:39;17.13;;;16.43;;
1957;SDS011;979;51.076;13.748;2023-08-12T14:33:10;17.50;;;16.70;;
1957;SDS011;979;51.076;13.748;2023-08-12T14:35:41;17.13;;;16.50;;
1957;SDS011;979;51.076;13.748;2023-08-12T14:38:12;17.50;;;16.70;;
1957;SDS011;979;51.076;13.748;2023-08-12T14:40:43;17.30;;;16.60;;
1957;SDS011;979;51.076;13.748;2023-08-12T14:43:15;17.93;;;17.23;;
1957;SDS011;979;51.076;13.748;2023-08-12T14:45:45;17.20;;;16.60;;
1957;SDS011;979;51.076;13.748;2023-08-12T14:48:13;17.70;;;16.97;;
1957;SDS011;979;51.076;13.748;2023-08-12T14:50:43;18.83;;;17.73;;
1957;SDS011;979;51.076;13.748;2023-08-12T14:53:13;18.00;;;17.20;;
1957;SDS011;979;51.076;13.748;2023-08-12T14:55:43;17.80;;;17.20;;
1957;SDS011;979;51.076;13.748;2023-08-12T14:58:14;18.47;;;17.47;;
1957;SDS011;979;51.076;13.748;2023-08-12T15:00:42;16.60;;;16.07;;
1957;SDS011;979;51.076;13.748;2023-08-12T15:03:11;17.20;;;16.60;;
1957;SDS011;979;51.076;13.748;2023-08-12T15:05:41;17.33;;;16.73;;